Time;durP1;ratioP1;P1;durP2;ratioP2;P2;SDS_P1;SDS_P2;PMS_P1;PMS_P2;Temp;Humidity;BMP_temperature;BMP_pressure;BME280_temperature;BME280_humidity;BME280_pressure;Samples;Min_cycle;Max_cycle;Signal;HPM_P1;HPM_P2
2023/01/25 00:01:09;;;;;;;14.40;10.52;;;;;;;2.34;45.36;103280.66;5042120;28;20040;-67
2023/01/25 00:03:37;;;;;;;15.77;10.50;;;;;;;2.33;45.48;103278.91;5042916;28;20526;-68
2023/01/25 00:06:05;;;;;;;16.90;10.65;;;;;;;2.34;45.35;103273.47;5043059;28;20502;-68
2023/01/25 00:08:33;;;;;;;14.75;10.30;;;;;;;2.35;45.26;103268.94;5036929;28;20120;-67
2023/01/25 00:11:01;;;;;;;13.45;9.63;;;;;;;2.35;45.40;103277.06;5040794;28;20116;-67
2023/01/25 00:13:29;;;;;;;15.18;10.10;;;;;;;2.35;45.42;103267.16;5042910;28;20056;-68
2023/01/25 00:16:01;;;;;;;14.77;9.68;;;;;;;2.38;45.33;103271.63;5043070;28;20048;-67
2023/01/25 00:18:31;;;;;;;14.48;10.23;;;;;;;2.36;45.25;103270.75;5023771;28;20139;-68
2023/01/25 00:20:58;;;;;;;15.82;10.75;;;;;;;2.36;45.50;103262.63;5044969;28;20056;-68
2023/01/25 00:23:26;;;;;;;14.65;10.10;;;;;;;2.35;45.43;103253.63;5045907;28;20045;-67
2023/01/25 00:25:57;;;;;;;15.20;10.40;;;;;;;2.36;45.45;103252.72;5046220;28;20099;-68
2023/01/25 00:28:25;;;;;;;15.13;9.90;;;;;;;2.36;45.50;103254.53;5043183;28;20098;-68
2023/01/25 00:30:53;;;;;;;16.02;10.70;;;;;;;2.36;45.43;103254.53;5022650;28;20052;-68
2023/01/25 00:33:43;;;;;;;15.63;10.10;;;;;;;2.37;45.34;103257.22;5045593;28;20079;-68
2023/01/25 00:36:34;;;;;;;14.30;9.95;;;;;;;2.36;45.70;103250.03;5045096;28;20053;-68
2023/01/25 00:39:04;;;;;;;13.07;9.23;;;;;;;2.35;45.81;103250.94;5043566;28;20037;-67
2023/01/25 00:41:32;;;;;;;14.63;9.77;;;;;;;2.37;45.62;103242.81;5041590;28;20053;-67
2023/01/25 00:44:00;;;;;;;15.50;10.75;;;;;;;2.37;45.47;103240.09;5043659;28;20045;-67
2023/01/25 00:46:28;;;;;;;15.50;9.98;;;;;;;2.38;45.58;103239.19;5032070;28;20567;-68
2023/01/25 00:48:57;;;;;;;15.35;10.20;;;;;;;2.39;45.38;103239.16;5045926;28;20493;-68
2023/01/25 00:51:25;;;;;;;15.15;10.70;;;;;;;2.38;45.46;103234.69;5048189;28;20055;-68
2023/01/25 00:53:53;;;;;;;18.00;10.98;;;;;;;2.38;45.61;103228.38;5046005;28;20045;-68
2023/01/25 00:56:21;;;;;;;15.70;10.18;;;;;;;2.37;45.39;103227.50;5047838;28;20049;-68
2023/01/25 00:58:49;;;;;;;16.95;10.32;;;;;;;2.35;45.40;103223.91;5046770;28;20056;-67
2023/01/25 01:01:19;;;;;;;15.85;10.05;;;;;;;2.34;45.39;103222.13;5031655;28;20076;-68
2023/01/25 01:03:47;;;;;;;15.80;11.05;;;;;;;2.33;45.36;103228.44;5022799;28;20064;-67
2023/01/25 01:06:16;;;;;;;15.95;10.25;;;;;;;2.33;45.43;103220.31;5026400;28;20076;-68
2023/01/25 01:08:45;;;;;;;16.38;10.57;;;;;;;2.32;45.49;103217.69;5035073;28;20723;-67
2023/01/25 01:11:13;;;;;;;18.70;12.48;;;;;;;2.30;45.55;103227.59;5029486;28;20056;-68
2023/01/25 01:13:41;;;;;;;16.95;11.70;;;;;;;2.28;45.47;103221.31;5041028;28;20053;-68
2023/01/25 01:16:11;;;;;;;16.23;10.73;;;;;;;2.29;45.52;103220.41;5046470;28;20139;-68
2023/01/25 01:18:42;;;;;;;14.95;10.50;;;;;;;2.29;45.58;103231.22;5042149;28;20102;-68
2023/01/25 01:21:11;;;;;;;16.40;10.95;;;;;;;2.26;45.70;103224.94;5029647;28;20049;-67
2023/01/25 01:23:40;;;;;;;17.70;11.50;;;;;;;2.25;45.42;103219.56;5045948;28;20036;-68
2023/01/25 01:26:11;;;;;;;17.23;11.85;;;;;;;2.25;45.47;103224.97;5044605;28;20076;-68
2023/01/25 01:28:39;;;;;;;17.92;11.68;;;;;;;2.23;45.50;103229.53;5044709;28;20068;-68
2023/01/25 01:31:11;;;;;;;16.45;10.65;;;;;;;2.23;45.37;103226.81;5044804;28;20494;-68
2023/01/25 01:33:44;;;;;;;15.65;10.65;;;;;;;2.20;45.59;103229.56;5035453;28;20119;-67
2023/01/25 01:36:14;;;;;;;14.68;10.80;;;;;;;2.20;45.64;103227.75;5021968;28;20110;-68
2023/01/25 01:38:44;;;;;;;14.82;9.95;;;;;;;2.20;45.55;103230.44;5036048;28;20044;-68
2023/01/25 01:41:13;;;;;;;16.52;10.43;;;;;;;2.18;45.54;103225.97;5044167;28;20448;-67
2023/01/25 01:43:41;;;;;;;15.75;10.57;;;;;;;2.18;45.66;103234.06;5026066;28;20106;-67
2023/01/25 01:46:16;;;;;;;14.23;9.65;;;;;;;2.19;45.67;103227.75;5031078;28;20040;-67
2023/01/25 01:48:49;;;;;;;15.60;10.32;;;;;;;2.18;45.65;103232.28;5039195;28;20089;-67
2023/01/25 01:51:24;;;;;;;15.48;9.90;;;;;;;2.17;45.77;103224.19;5029401;28;20501;-69
2023/01/25 01:53:59;;;;;;;15.48;10.40;;;;;;;2.17;45.59;103225.06;5046543;28;20063;-68
2023/01/25 01:56:34;;;;;;;15.05;9.77;;;;;;;2.17;45.80;103221.47;5028397;28;20048;-67
2023/01/25 01:59:04;;;;;;;14.55;9.52;;;;;;;2.15;45.75;103217.94;5027467;28;20445;-68
2023/01/25 02:01:33;;;;;;;15.32;10.45;;;;;;;2.15;45.80;103216.13;5033543;28;20087;-67
2023/01/25 02:04:05;;;;;;;15.85;9.82;;;;;;;2.15;45.98;103216.13;5040276;28;20040;-68
2023/01/25 02:06:41;;;;;;;15.48;10.52;;;;;;;2.15;45.86;103212.53;5026508;28;20053;-67
2023/01/25 02:09:11;;;;;;;15.90;10.15;;;;;;;2.15;45.85;103213.44;5023492;28;20045;-67
2023/01/25 02:11:40;;;;;;;14.48;10.18;;;;;;;2.15;45.77;103213.44;5025453;28;20045;-67
2023/01/25 02:14:08;;;;;;;16.00;10.52;;;;;;;2.14;45.92;103211.63;5043686;28;20382;-67
2023/01/25 02:16:36;;;;;;;18.30;11.70;;;;;;;2.14;45.84;103211.63;5025856;28;20057;-67
2023/01/25 02:19:06;;;;;;;18.58;11.02;;;;;;;2.15;45.86;103204.44;5030718;28;20472;-68
2023/01/25 02:21:40;;;;;;;18.85;11.65;;;;;;;2.16;45.79;103211.63;5045285;28;20386;-68
2023/01/25 02:24:17;;;;;;;17.08;10.85;;;;;;;2.14;45.94;103208.94;5044136;28;20087;-67
2023/01/25 02:26:46;;;;;;;18.17;11.20;;;;;;;2.13;45.96;103204.44;5043131;28;20065;-68
2023/01/25 02:29:15;;;;;;;19.15;12.10;;;;;;;2.13;45.88;103206.25;5040669;28;20525;-68
2023/01/25 02:31:45;;;;;;;19.70;11.55;;;;;;;2.13;45.74;103206.25;5046530;28;20052;-68
2023/01/25 02:34:13;;;;;;;16.15;10.50;;;;;;;2.12;45.83;103208.06;5044234;28;20053;-68
2023/01/25 02:36:41;;;;;;;16.25;10.68;;;;;;;2.11;45.84;103203.56;5027146;28;20053;-68
2023/01/25 02:39:12;;;;;;;16.70;11.23;;;;;;;2.11;45.96;103203.56;5040780;28;20504;-67
2023/01/25 02:41:42;;;;;;;17.65;11.15;;;;;;;2.10;45.87;103199.06;5045915;28;20041;-68
2023/01/25 02:44:15;;;;;;;16.52;10.65;;;;;;;2.11;46.00;103200.88;5041693;28;20044;-67
2023/01/25 02:46:45;;;;;;;18.98;11.35;;;;;;;2.09;46.08;103196.38;5021353;28;20032;-68
2023/01/25 02:49:14;;;;;;;14.95;10.07;;;;;;;2.09;45.96;103194.59;5023903;28;20538;-67
2023/01/25 02:51:43;;;;;;;17.83;11.38;;;;;;;2.10;45.88;103195.47;5045421;28;20056;-68
2023/01/25 02:54:13;;;;;;;16.13;10.23;;;;;;;2.09;45.89;103189.19;5041540;28;20053;-67
2023/01/25 02:56:41;;;;;;;18.92;11.27;;;;;;;2.09;46.33;103191.00;5043913;28;20037;-67
2023/01/25 02:59:12;;;;;;;19.83;12.38;;;;;;;2.09;46.35;103191.00;5028985;28;20048;-68
2023/01/25 03:01:45;;;;;;;17.02;11.30;;;;;;;2.09;46.33;103191.88;5034576;28;20037;-67
2023/01/25 03:04:14;;;;;;;17.77;10.85;;;;;;;2.10;46.19;103192.78;5043265;28;20037;-68
2023/01/25 03:06:42;;;;;;;17.30;11.43;;;;;;;2.09;46.23;103193.69;5025675;28;20044;-67
2023/01/25 03:09:12;;;;;;;16.80;11.05;;;;;;;2.10;46.14;103190.06;5041985;28;20072;-67
2023/01/25 03:11:44;;;;;;;;;;;;;;;1.87;46.69;103195.81;5035715;28;20563;-67
2023/01/25 03:14:13;;;;;;;15.75;9.68;;;;;;;2.05;46.24;103189.25;5025799;28;19929;-68
2023/01/25 03:16:41;;;;;;;16.38;11.20;;;;;;;2.07;46.01;103192.84;5043155;28;20045;-67
2023/01/25 03:19:09;;;;;;;14.70;10.18;;;;;;;2.08;46.21;103191.94;5039816;28;20091;-67
2023/01/25 03:21:40;;;;;;;17.67;10.40;;;;;;;2.06;45.91;103197.34;5024665;28;20057;-67
2023/01/25 03:24:10;;;;;;;16.90;10.70;;;;;;;2.06;46.36;103196.47;5026226;28;20152;-67
2023/01/25 03:29:52;;;;;;;17.75;11.10;;;;;;;2.00;46.26;103183.91;5032013;28;20049;-67
2023/01/25 03:32:22;;;;;;;18.70;11.48;;;;;;;2.00;46.37;103183.06;5032212;28;20052;-67
2023/01/25 03:34:51;;;;;;;17.27;10.80;;;;;;;1.99;46.43;103192.97;5030892;28;20114;-67
2023/01/25 03:37:20;;;;;;;18.80;10.70;;;;;;;1.99;46.22;103179.47;5027049;28;20497;-67
2023/01/25 03:39:49;;;;;;;14.77;9.90;;;;;;;1.99;46.15;103178.56;5039586;28;20044;-67
2023/01/25 03:42:20;;;;;;;19.10;10.63;;;;;;;1.98;46.31;103180.38;5035433;28;20486;-67
2023/01/25 03:44:52;;;;;;;16.70;10.13;;;;;;;1.97;46.42;103185.78;5026439;28;21692;-67
2023/01/25 03:47:20;;;;;;;18.15;11.10;;;;;;;1.96;46.66;103174.09;5027591;28;20514;-67
2023/01/25 03:49:48;;;;;;;18.02;11.60;;;;;;;1.96;46.44;103171.38;5020437;28;20119;-67
2023/01/25 03:52:18;;;;;;;16.60;10.80;;;;;;;1.97;46.53;103178.59;5043488;28;20044;-67
2023/01/25 03:54:47;;;;;;;17.17;10.88;;;;;;;1.97;46.38;103177.69;5030335;28;20433;-67
2023/01/25 03:57:15;;;;;;;17.23;10.85;;;;;;;1.97;46.37;103169.59;5027997;28;20059;-67
2023/01/25 03:59:55;;;;;;;17.67;11.05;;;;;;;1.97;46.69;103169.59;5025951;28;20727;-67
2023/01/25 04:02:23;;;;;;;18.50;11.20;;;;;;;1.97;46.75;103166.88;5030027;28;20052;-67
2023/01/25 04:04:51;;;;;;;17.65;10.73;;;;;;;1.97;46.61;103156.97;5027110;28;20037;-67
2023/01/25 04:07:20;;;;;;;17.73;11.77;;;;;;;1.97;46.50;103150.69;5031999;28;20123;-68
2023/01/25 04:09:50;;;;;;;18.52;12.07;;;;;;;1.97;46.53;103154.28;5029503;28;20140;-67
2023/01/25 04:12:18;;;;;;;18.17;11.05;;;;;;;1.97;46.47;103154.28;5017224;28;20370;-68
2023/01/25 04:14:46;;;;;;;17.70;10.80;;;;;;;1.98;46.38;103150.66;5037434;28;20046;-67
2023/01/25 04:17:23;;;;;;;16.88;11.15;;;;;;;1.97;46.48;103146.16;5021402;28;20110;-67
2023/01/25 04:19:53;;;;;;;18.40;11.77;;;;;;;1.95;46.68;103130.91;5029428;28;20044;-67
2023/01/25 04:22:26;;;;;;;18.95;11.05;;;;;;;1.94;46.62;103138.09;5029816;28;20037;-70
2023/01/25 04:24:56;;;;;;;17.17;11.05;;;;;;;1.95;46.64;103129.09;5017296;28;20049;-70
2023/01/25 04:27:24;;;;;;;18.75;11.77;;;;;;;1.96;46.58;103129.97;5029100;28;20540;-70
2023/01/25 04:29:58;;;;;;;17.13;10.05;;;;;;;1.94;46.55;103127.31;5026852;28;20053;-70
2023/01/25 04:32:28;;;;;;;17.35;10.38;;;;;;;1.95;46.69;103121.00;5026757;28;20037;-70
2023/01/25 04:34:57;;;;;;;17.80;11.43;;;;;;;1.95;46.75;103114.69;5043491;28;20065;-69
2023/01/25 04:37:28;;;;;;;18.83;11.15;;;;;;;1.96;46.99;103116.47;5042011;28;20094;-70
2023/01/25 04:39:58;;;;;;;20.50;12.07;;;;;;;1.96;46.79;103117.38;5046123;28;20429;-70
2023/01/25 04:42:29;;;;;;;20.85;12.02;;;;;;;1.96;46.91;103119.19;5030774;28;20557;-70
2023/01/25 04:44:58;;;;;;;20.52;12.07;;;;;;;1.99;46.95;103121.84;5027999;28;20124;-70
2023/01/25 04:47:28;;;;;;;19.10;11.32;;;;;;;2.00;46.80;103121.78;5024803;28;20540;-70
2023/01/25 04:49:56;;;;;;;20.73;12.73;;;;;;;2.01;46.78;103115.47;5018752;28;20496;-70
2023/01/25 04:52:27;;;;;;;22.95;12.93;;;;;;;2.02;47.00;103114.56;5030864;28;20049;-69
2023/01/25 04:54:55;;;;;;;24.00;12.60;;;;;;;2.03;46.97;103105.56;5025646;28;20741;-69
2023/01/25 04:57:24;;;;;;;22.38;11.82;;;;;;;2.05;46.95;103111.84;5046245;28;20246;-70
2023/01/25 04:59:52;;;;;;;24.35;13.43;;;;;;;2.06;46.98;103108.22;5024790;28;20045;-70
2023/01/25 05:02:22;;;;;;;23.85;13.88;;;;;;;2.08;46.98;103105.50;5019422;28;20032;-69
2023/01/25 05:04:52;;;;;;;24.10;13.13;;;;;;;2.10;47.05;103103.63;5029012;28;20044;-70
2023/01/25 05:07:20;;;;;;;24.23;13.13;;;;;;;2.09;47.02;103097.34;5043775;28;20049;-70
2023/01/25 05:09:48;;;;;;;25.67;13.73;;;;;;;2.12;47.07;103102.72;5043585;28;20128;-70
2023/01/25 05:12:19;;;;;;;22.92;13.20;;;;;;;2.12;47.04;103097.31;5044789;28;20037;-69
2023/01/25 05:15:00;;;;;;;20.48;11.75;;;;;;;2.11;46.87;103098.22;5029478;28;20045;-70
2023/01/25 05:17:28;;;;;;;20.50;12.07;;;;;;;2.13;46.91;103099.09;5036668;28;20568;-70
2023/01/25 05:19:57;;;;;;;21.95;12.13;;;;;;;2.14;47.01;103090.06;5029287;28;20053;-70
2023/01/25 05:22:25;;;;;;;24.27;12.43;;;;;;;2.15;47.18;103099.06;5041743;28;20042;-70
2023/01/25 05:24:53;;;;;;;22.35;12.63;;;;;;;2.15;47.11;103090.97;5022582;28;20063;-70
2023/01/25 05:27:21;;;;;;;21.67;12.45;;;;;;;2.16;46.98;103090.06;5044091;28;20041;-70
2023/01/25 05:29:56;;;;;;;22.40;12.23;;;;;;;2.16;47.10;103088.25;5038727;28;20050;-69
2023/01/25 05:32:36;;;;;;;22.02;12.00;;;;;;;2.16;47.17;103090.06;5027519;28;20037;-70
2023/01/25 05:35:06;;;;;;;18.60;11.50;;;;;;;2.18;47.15;103094.50;5043766;28;20076;-70
2023/01/25 05:37:35;;;;;;;21.15;12.18;;;;;;;2.18;46.96;103086.38;5040100;28;20080;-70
2023/01/25 05:40:08;;;;;;;21.05;12.40;;;;;;;2.19;47.05;103076.47;5029280;28;20049;-70
2023/01/25 05:42:38;;;;;;;23.20;12.63;;;;;;;2.17;47.19;103079.19;5021746;28;20048;-70
2023/01/25 05:45:13;;;;;;;19.42;11.43;;;;;;;2.18;47.37;103086.38;5028704;28;20521;-69
2023/01/25 05:47:42;;;;;;;20.08;12.40;;;;;;;2.18;47.22;103082.78;5034188;28;20053;-69
2023/01/25 05:50:11;;;;;;;20.25;12.07;;;;;;;2.20;47.35;103080.97;5021588;28;20059;-70
2023/01/25 05:52:52;;;;;;;19.42;11.98;;;;;;;2.18;47.28;103085.50;5021749;28;20673;-69
2023/01/25 05:55:20;;;;;;;22.02;12.45;;;;;;;2.19;47.29;103087.28;5034053;28;20458;-69
2023/01/25 05:57:49;;;;;;;23.58;12.75;;;;;;;2.19;47.25;103080.06;5027545;28;20045;-70
2023/01/25 06:00:18;;;;;;;20.55;12.32;;;;;;;2.21;47.16;103083.66;5017433;28;20052;-70
2023/01/25 06:02:46;;;;;;;20.63;11.60;;;;;;;2.21;47.35;103080.94;5018812;28;20542;-69
2023/01/25 06:05:19;;;;;;;23.00;12.32;;;;;;;2.19;47.37;103077.38;5027382;28;20497;-69
2023/01/25 06:07:48;;;;;;;22.63;12.73;;;;;;;2.20;47.30;103070.16;5026702;28;20049;-69
2023/01/25 06:10:18;;;;;;;21.25;12.40;;;;;;;2.20;47.38;103073.75;5048166;28;20144;-69
2023/01/25 06:12:49;;;;;;;22.83;12.65;;;;;;;2.20;47.28;103073.75;5021317;28;20053;-69
2023/01/25 06:15:17;;;;;;;23.05;12.95;;;;;;;2.21;47.36;103069.25;5018067;28;20060;-69
2023/01/25 06:17:45;;;;;;;22.70;13.65;;;;;;;2.21;47.36;103072.84;5045861;28;20094;-70
2023/01/25 06:20:46;;;;;;;21.80;12.73;;;;;;;2.20;47.65;103065.66;5007542;28;20289;-70
2023/01/25 06:23:14;;;;;;;23.45;13.50;;;;;;;2.22;47.29;103068.31;5045208;28;20045;-70
2023/01/25 06:25:42;;;;;;;21.15;13.48;;;;;;;2.23;47.39;103068.31;5041962;28;20493;-70
2023/01/25 06:28:10;;;;;;;24.13;12.90;;;;;;;2.25;47.53;103073.66;5046264;28;20531;-69
2023/01/25 06:30:38;;;;;;;22.00;13.27;;;;;;;2.24;47.45;103070.09;5031365;28;20036;-69
2023/01/25 06:33:06;;;;;;;24.75;13.70;;;;;;;2.24;47.62;103064.69;5044846;28;20037;-70
2023/01/25 06:35:34;;;;;;;22.85;13.32;;;;;;;2.27;47.36;103071.81;5036882;28;20474;-70
2023/01/25 06:38:03;;;;;;;22.05;12.45;;;;;;;2.27;47.52;103069.13;5038383;28;20383;-69
2023/01/25 06:40:31;;;;;;;26.40;14.10;;;;;;;2.27;47.42;103063.72;5034444;28;20501;-69
2023/01/25 06:43:06;;;;;;;24.92;13.35;;;;;;;2.30;47.79;103068.19;5041872;28;20045;-70
2023/01/25 06:45:34;;;;;;;22.38;12.82;;;;;;;2.28;47.47;103070.91;5043353;28;20160;-70
2023/01/25 06:48:02;;;;;;;23.90;13.07;;;;;;;2.29;47.67;103066.41;5035459;28;20559;-70
2023/01/25 06:50:30;;;;;;;25.17;13.88;;;;;;;2.30;47.57;103070.91;5041562;28;20045;-70
2023/01/25 06:52:58;;;;;;;25.42;14.27;;;;;;;2.30;47.67;103074.50;5034336;28;20033;-70
2023/01/25 06:55:27;;;;;;;27.95;14.60;;;;;;;2.31;47.57;103069.97;5039762;28;20041;-70
2023/01/25 06:57:55;;;;;;;21.60;12.45;;;;;;;2.31;47.61;103072.69;5031660;28;20055;-71
2023/01/25 07:00:23;;;;;;;24.05;13.50;;;;;;;2.31;47.43;103068.16;5041193;28;21704;-70
2023/01/25 07:02:51;;;;;;;24.83;14.40;;;;;;;2.30;47.45;103069.09;5044792;28;20032;-71
2023/01/25 07:05:19;;;;;;;23.33;13.30;;;;;;;2.30;47.56;103068.19;5043760;28;20049;-70
2023/01/25 07:07:47;;;;;;;23.38;13.13;;;;;;;2.31;47.58;103067.28;5042479;28;20053;-71
2023/01/25 07:10:15;;;;;;;23.55;13.27;;;;;;;2.30;47.56;103074.50;5023664;28;20057;-70
2023/01/25 07:12:44;;;;;;;25.27;13.18;;;;;;;2.31;47.53;103067.28;5026202;28;20037;-71
2023/01/25 07:15:12;;;;;;;23.88;12.85;;;;;;;2.30;47.45;103069.09;5037196;28;20282;-71
2023/01/25 07:17:40;;;;;;;22.50;12.95;;;;;;;2.31;47.64;103069.97;5046153;28;20460;-70
2023/01/25 07:20:09;;;;;;;24.10;13.50;;;;;;;2.31;47.54;103073.56;5042104;28;20083;-71
2023/01/25 07:22:37;;;;;;;25.05;13.60;;;;;;;2.31;47.69;103068.16;5041850;28;20037;-70
2023/01/25 07:25:05;;;;;;;24.15;12.88;;;;;;;2.32;47.72;103069.97;5022747;28;20053;-70
2023/01/25 07:27:35;;;;;;;23.95;13.77;;;;;;;2.31;47.89;103068.16;5018289;28;20411;-69
2023/01/25 07:30:05;;;;;;;23.00;14.10;;;;;;;2.32;47.77;103069.97;5038050;28;20524;-70
2023/01/25 07:32:33;;;;;;;24.67;13.93;;;;;;;2.31;47.63;103069.97;5051573;28;20513;-70
2023/01/25 07:35:01;;;;;;;27.38;14.85;;;;;;;2.31;47.60;103073.56;5043891;28;20044;-71
2023/01/25 07:37:28;;;;;;;23.38;13.55;;;;;;;2.31;47.75;103065.47;5044352;28;20052;-71
2023/01/25 07:39:57;;;;;;;25.23;13.77;;;;;;;2.32;47.66;103069.06;5043909;28;20045;-70
2023/01/25 07:42:25;;;;;;;25.33;14.20;;;;;;;2.32;47.66;103061.84;5042154;28;20041;-71
2023/01/25 07:45:11;;;;;;;26.33;14.52;;;;;;;2.33;47.87;103068.16;5055668;28;20510;-69
2023/01/25 07:47:40;;;;;;;24.30;13.18;;;;;;;2.32;47.64;103067.25;5045867;28;20045;-72
2023/01/25 07:50:09;;;;;;;23.50;13.70;;;;;;;2.33;47.66;103062.75;5043653;28;20421;-71
2023/01/25 07:52:37;;;;;;;21.77;12.55;;;;;;;2.32;47.81;103059.16;5045301;28;20106;-71
2023/01/25 07:55:05;;;;;;;25.25;14.02;;;;;;;2.33;47.72;103060.03;5043407;28;20041;-72
2023/01/25 07:57:34;;;;;;;25.40;14.85;;;;;;;2.31;47.73;103054.66;5058963;28;20758;-72
2023/01/25 08:00:05;;;;;;;22.88;13.50;;;;;;;2.32;47.72;103053.75;5044066;28;20132;-71
2023/01/25 08:02:40;;;;;;;24.27;13.40;;;;;;;2.32;47.79;103058.25;5038798;28;20063;-71
2023/01/25 08:05:09;;;;;;;20.48;12.60;;;;;;;2.32;47.68;103055.56;5044457;28;20036;-71
2023/01/25 08:07:37;;;;;;;23.63;13.10;;;;;;;2.31;47.73;103051.97;5018426;28;20494;-72
2023/01/25 08:10:06;;;;;;;23.92;14.20;;;;;;;2.31;47.72;103051.06;5019786;28;20056;-71
2023/01/25 08:12:34;;;;;;;24.88;14.25;;;;;;;2.32;47.90;103060.97;5015064;28;20042;-70
2023/01/25 08:15:03;;;;;;;24.60;14.40;;;;;;;2.31;47.78;103060.06;5021532;28;20563;-71
2023/01/25 08:17:32;;;;;;;26.27;14.55;;;;;;;2.31;47.81;103054.66;5043892;28;20052;-72
2023/01/25 08:20:01;;;;;;;25.90;15.10;;;;;;;2.32;47.85;103056.44;5037403;28;20160;-71
2023/01/25 08:22:29;;;;;;;27.13;15.35;;;;;;;2.31;47.80;103046.56;5040101;28;20041;-70
2023/01/25 08:24:59;;;;;;;25.33;14.55;;;;;;;2.31;47.71;103042.97;5027483;28;20045;-71
2023/01/25 08:27:27;;;;;;;24.90;13.27;;;;;;;2.30;47.81;103055.56;5039662;28;20127;-69
2023/01/25 08:29:55;;;;;;;25.55;14.52;;;;;;;2.29;47.77;103051.09;5027511;28;20060;-70
2023/01/25 08:32:23;;;;;;;25.25;13.68;;;;;;;2.30;47.74;103049.28;5038979;28;20045;-70
2023/01/25 08:34:51;;;;;;;26.40;14.18;;;;;;;2.29;47.90;103048.38;5011621;28;20521;-71
2023/01/25 08:37:20;;;;;;;23.77;13.35;;;;;;;2.30;47.82;103042.06;5038245;28;20059;-70
2023/01/25 08:39:48;;;;;;;25.45;14.07;;;;;;;2.28;47.92;103043.91;5038223;28;20045;-70
2023/01/25 08:42:16;;;;;;;22.85;13.68;;;;;;;2.29;47.75;103039.38;5031914;28;20397;-70
2023/01/25 08:44:44;;;;;;;24.42;13.60;;;;;;;2.29;47.64;103045.69;5039492;28;20053;-70
2023/01/25 08:47:12;;;;;;;25.55;14.07;;;;;;;2.28;47.85;103043.91;5041817;28;20082;-71
2023/01/25 08:49:39;;;;;;;25.52;14.35;;;;;;;2.29;47.88;103045.69;5038645;28;20041;-71
2023/01/25 08:52:07;;;;;;;25.35;14.38;;;;;;;2.29;47.75;103045.69;5039196;28;20105;-70
2023/01/25 08:54:37;;;;;;;24.77;14.63;;;;;;;2.30;47.73;103041.16;5038235;28;20463;-70
2023/01/25 08:57:05;;;;;;;26.95;14.85;;;;;;;2.29;47.83;103039.38;5045531;28;20041;-70
2023/01/25 08:59:32;;;;;;;25.00;14.13;;;;;;;2.29;47.84;103042.97;5040540;28;20044;-70
2023/01/25 09:02:00;;;;;;;28.35;16.20;;;;;;;2.28;47.89;103038.50;5043371;28;20098;-71
2023/01/25 09:04:28;;;;;;;27.27;15.30;;;;;;;2.28;47.76;103030.38;5038086;28;20041;-71
2023/01/25 09:06:56;;;;;;;29.58;15.73;;;;;;;2.28;47.71;103029.50;5035554;28;20561;-71
2023/01/25 09:09:24;;;;;;;25.60;14.73;;;;;;;2.27;47.86;103031.31;5041156;28;20056;-71
2023/01/25 09:11:54;;;;;;;26.77;14.68;;;;;;;2.27;47.75;103031.31;5037165;28;20056;-71
2023/01/25 09:14:21;;;;;;;26.92;14.80;;;;;;;2.25;47.76;103030.44;5041687;28;20049;-71
2023/01/25 09:16:49;;;;;;;28.70;15.75;;;;;;;2.25;47.72;103019.63;5047595;28;20053;-71
2023/01/25 09:19:17;;;;;;;27.45;15.20;;;;;;;2.24;47.83;103025.97;5035674;28;20103;-72
2023/01/25 09:21:46;;;;;;;29.13;15.80;;;;;;;2.24;47.86;103021.47;5047435;28;20114;-71
2023/01/25 09:24:14;;;;;;;31.83;16.55;;;;;;;2.24;47.80;103021.47;5033523;28;20049;-70
2023/01/25 09:26:42;;;;;;;27.95;15.77;;;;;;;2.24;47.81;103023.28;5046162;28;20139;-69
2023/01/25 09:29:24;;;;;;;27.27;15.57;;;;;;;2.24;47.91;103017.88;5038023;28;20048;-69
2023/01/25 09:31:51;;;;;;;28.30;15.88;;;;;;;2.24;47.83;103021.47;5041953;28;20041;-71
2023/01/25 09:34:33;;;;;;;30.08;16.02;;;;;;;2.23;47.88;103006.16;5035060;28;20127;-69
2023/01/25 09:37:01;;;;;;;28.75;15.35;;;;;;;2.22;48.00;103004.38;5026272;28;20127;-69
2023/01/25 09:39:29;;;;;;;27.75;15.00;;;;;;;2.24;47.99;102999.84;5035149;28;20037;-70
2023/01/25 09:42:37;;;;;;;27.88;15.88;;;;;;;2.28;48.34;102995.25;5041838;28;20044;-70
2023/01/25 09:45:14;;;;;;;33.15;17.70;;;;;;;2.26;47.99;103000.69;5003062;28;20520;-69
2023/01/25 09:47:47;;;;;;;32.78;16.42;;;;;;;2.27;47.96;102993.47;5034899;28;20063;-70
2023/01/25 09:50:37;;;;;;;29.63;15.98;;;;;;;2.25;48.06;102985.38;5041271;28;20160;-70
2023/01/25 09:53:32;;;;;;;32.28;17.10;;;;;;;2.24;48.09;102989.03;5037685;28;20165;-69
2023/01/25 09:56:08;;;;;;;28.60;15.45;;;;;;;2.26;47.68;102988.97;5042271;28;20052;-71
2023/01/25 09:58:41;;;;;;;28.42;14.80;;;;;;;2.27;47.82;102993.47;5032556;28;20119;-70
2023/01/25 10:01:23;;;;;;;30.27;15.55;;;;;;;2.25;48.08;102988.09;5043923;28;20064;-70
2023/01/25 10:04:13;;;;;;;26.00;13.60;;;;;;;2.24;48.03;102986.34;5037342;28;20038;-69
2023/01/25 10:06:44;;;;;;;28.48;14.80;;;;;;;2.26;47.93;102980.88;5044347;28;20048;-70
2023/01/25 10:09:35;;;;;;;25.83;13.60;;;;;;;2.27;48.15;102990.78;5042715;28;20046;-70
2023/01/25 10:12:09;;;;;;;26.15;14.35;;;;;;;2.26;47.86;102981.78;5034238;28;20041;-70
2023/01/25 10:14:38;;;;;;;24.75;13.32;;;;;;;2.25;48.06;102974.59;5030710;28;20102;-70
2023/01/25 10:17:15;;;;;;;24.75;13.73;;;;;;;2.29;48.34;102974.53;5029318;28;20524;-70
2023/01/25 10:20:03;;;;;;;25.65;14.52;;;;;;;2.29;48.32;102977.25;5040750;28;20502;-70
2023/01/25 10:22:36;;;;;;;27.73;14.57;;;;;;;2.29;48.29;102972.72;5033279;28;20259;-70
2023/01/25 10:25:28;;;;;;;;;;;;;;;2.07;48.94;102968.66;5038967;28;20077;-70
2023/01/25 10:28:08;;;;;;;21.92;11.88;;;;;;;2.26;48.32;102973.66;5036412;28;20420;-70
2023/01/25 10:30:43;;;;;;;26.00;12.85;;;;;;;2.30;48.20;102968.22;5038590;28;20041;-70
2023/01/25 10:33:15;;;;;;;23.67;13.25;;;;;;;2.31;48.23;102970.00;5041741;28;20502;-70
2023/01/25 10:35:45;;;;;;;27.63;14.47;;;;;;;2.28;48.16;102962.84;5040089;28;20044;-70
2023/01/25 10:38:20;;;;;;;26.05;13.90;;;;;;;2.31;48.17;102961.91;5042885;28;20285;-70
2023/01/25 10:40:53;;;;;;;26.48;14.05;;;;;;;2.32;48.26;102951.06;5045580;28;20053;-69
2023/01/25 10:43:22;;;;;;;24.00;12.95;;;;;;;2.31;48.20;102946.56;5042531;28;20043;-69
2023/01/25 10:45:50;;;;;;;23.95;12.75;;;;;;;2.31;48.22;102949.28;5041967;28;20041;-70
2023/01/25 10:48:24;;;;;;;26.77;13.73;;;;;;;2.33;48.16;102951.97;5043640;28;20052;-70
2023/01/25 10:50:53;;;;;;;25.83;13.40;;;;;;;2.33;48.13;102938.44;5046493;28;20400;-70
2023/01/25 10:53:25;;;;;;;27.42;14.85;;;;;;;2.33;48.23;102942.00;5025857;28;20048;-69
2023/01/25 10:56:00;;;;;;;27.02;13.60;;;;;;;2.34;48.12;102940.19;5028278;28;20179;-69
2023/01/25 10:58:34;;;;;;;26.85;14.55;;;;;;;2.34;48.16;102932.09;5022752;28;20052;-70
2023/01/25 11:01:05;;;;;;;28.20;13.63;;;;;;;2.32;48.20;102928.56;5033835;28;20049;-69
2023/01/25 11:03:37;;;;;;;24.38;13.55;;;;;;;2.33;48.10;102924.94;5038135;28;20445;-70
2023/01/25 11:06:05;;;;;;;26.50;14.10;;;;;;;2.32;48.19;102915.94;5023942;28;20036;-69
2023/01/25 11:08:36;;;;;;;28.40;15.18;;;;;;;2.33;48.10;102922.25;5033920;28;20042;-69
2023/01/25 11:11:32;;;;;;;28.48;14.88;;;;;;;2.33;48.32;102919.53;5025853;28;20180;-69
2023/01/25 11:14:00;;;;;;;27.85;14.70;;;;;;;2.32;48.10;102918.63;5018140;28;20056;-70
2023/01/25 11:16:34;;;;;;;29.17;14.60;;;;;;;2.35;48.11;102910.44;5034837;28;20102;-70
2023/01/25 11:19:23;;;;;;;26.92;15.02;;;;;;;2.35;48.07;102904.16;5032348;28;20555;-70
2023/01/25 11:21:52;;;;;;;28.80;14.90;;;;;;;2.34;48.16;102900.56;5046082;28;20041;-69
2023/01/25 11:24:21;;;;;;;27.77;14.82;;;;;;;2.35;47.96;102899.66;5036720;28;20403;-69
2023/01/25 11:26:48;;;;;;;25.42;14.40;;;;;;;2.36;48.09;102896.03;5040095;28;20470;-69
2023/01/25 11:29:18;;;;;;;25.90;14.77;;;;;;;2.37;48.09;102891.50;5039109;28;20397;-69
2023/01/25 11:31:49;;;;;;;27.52;14.18;;;;;;;2.38;47.93;102893.28;5033944;28;20041;-68
2023/01/25 11:34:21;;;;;;;28.85;15.25;;;;;;;2.38;48.02;102882.50;5040980;28;20063;-69
2023/01/25 11:37:06;;;;;;;25.35;14.65;;;;;;;2.37;47.99;102873.50;5042209;28;20045;-68
2023/01/25 11:39:47;;;;;;;29.55;15.25;;;;;;;2.38;48.19;102867.16;5041690;28;20060;-68